메인 페이지
METAR-TAF:

METAR-TAF

공항 :

Rutland Southern Vermont Regional Airport

Rutland, 버몬트, 미국

위도: 43-32N, 경도: 072-57W, 고도: 240m

현재 날씨관측

예보는 9분 전, 21:56시(UTC)에 발표되었습니다.
동남동4kt
온도 -4°C
습도 86%
기압 1001 hPa
시정: 14.5km
고도 3300ft 상공 흐림
약한눈

METAR: KRUT 212156Z AUTO 11004KT 9SM -SN OVC033 M04/M06 A2955 RMK AO2 SLP013 P0000 T10441056 FZRANO $

시각: 17:05 (22:05 UTC)

예보

예보는 8분 전, 21:57시(UTC)에 발표되었습니다.
예보 대상 시간: 21일 22시부터 22일 18시까지 (UTC)
남남서7kt
시정: 6.4km
고도 2500ft 상공 구름 보통
고도 4000ft 상공 구름 많음
약한소낙눈, 박무
일시적
22일 02시부터 22일 06시까지 (UTC)
시정: 3.2km
고도 2500ft 상공 구름 많음
약한소낙눈, 박무
22일 0600시부터 (UTC)
남서6kt
시정: 10km
고도 2100ft 상공 흐림
시계 내 소나기
22일 0800시부터 (UTC)
남서5kt
시정: 8.0km
고도 2000ft 상공 흐림
약한소낙눈
22일 1300시부터 (UTC)
남서5kt
시정: 4.8km
고도 2000ft 상공 흐림
약한소낙눈, 박무

TAF: KRUT 212157Z 2122/2218 20007KT 4SM -SHSN BR SCT025 BKN040 TEMPO 2202/2206 2SM -SHSN BR BKN025 FM220600 22006KT P6SM VCSH OVC021 FM220800 23005KT 5SM -SHSN OVC020 FM221300 23005KT 3SM -SHSN BR OVC020

4,000개 이상의 공항 관측 자료 및 예보 (METAR 및 TAF 보고).

지도상에서 검색 가능한 기상관측소가 노란 점과 빨간 점으로 표시되어 있습니다.

기상관측소 명을 보려면 표시 위로 마우스를 이동하세요.

날씨 관측과 예보를 보려면 클릭하세요.

지도 변경 : 확대하려면 엑스 표시가 있는 녹색 버튼, 축소하려면 빼기 표시가 있는 녹색 버튼, 다음 페이지의 지도를 보려면 녹색 화살표를 클릭하세요.


METAR-TAF: